sensor_id;sensor_type;location;lat;lon;timestamp;pressure;altitude;pressure_sealevel;temperature;humidity
56582;BME280;42463;52.214;21.238;2023-03-15T00:00:17;98575.41;;;10.58;66.73
56582;BME280;42463;52.214;21.238;2023-03-15T00:02:42;98578.66;;;10.58;66.65
56582;BME280;42463;52.214;21.238;2023-03-15T00:04:48;98581.71;;;10.57;66.86
56582;BME280;42463;52.214;21.238;2023-03-15T00:06:53;98582.15;;;10.57;66.80
56582;BME280;42463;52.214;21.238;2023-03-15T00:08:59;98578.86;;;10.56;66.89
56582;BME280;42463;52.214;21.238;2023-03-15T00:11:06;98584.27;;;10.56;67.06
56582;BME280;42463;52.214;21.238;2023-03-15T00:13:16;98581.44;;;10.53;67.17
56582;BME280;42463;52.214;21.238;2023-03-15T00:15:22;98584.92;;;10.53;67.18
56582;BME280;42463;52.214;21.238;2023-03-15T00:17:28;98588.16;;;10.54;67.42
56582;BME280;42463;52.214;21.238;2023-03-15T00:19:37;98592.19;;;10.56;67.23
56582;BME280;42463;52.214;21.238;2023-03-15T00:21:43;98595.93;;;10.56;67.41
56582;BME280;42463;52.214;21.238;2023-03-15T00:23:49;98595.83;;;10.56;67.48
56582;BME280;42463;52.214;21.238;2023-03-15T00:25:55;98596.31;;;10.56;67.18
56582;BME280;42463;52.214;21.238;2023-03-15T00:28:00;98599.83;;;10.54;67.62
56582;BME280;42463;52.214;21.238;2023-03-15T00:30:08;98597.39;;;10.51;67.66
56582;BME280;42463;52.214;21.238;2023-03-15T00:32:13;98601.80;;;10.49;67.75
56582;BME280;42463;52.214;21.238;2023-03-15T00:34:19;98600.72;;;10.49;67.69
56582;BME280;42463;52.214;21.238;2023-03-15T00:36:27;98605.80;;;10.50;67.76
56582;BME280;42463;52.214;21.238;2023-03-15T00:38:33;98612.02;;;10.52;67.86
56582;BME280;42463;52.214;21.238;2023-03-15T00:40:39;98611.85;;;10.54;67.81
56582;BME280;42463;52.214;21.238;2023-03-15T00:42:45;98615.59;;;10.54;67.78
56582;BME280;42463;52.214;21.238;2023-03-15T00:44:53;98618.34;;;10.55;67.86
56582;BME280;42463;52.214;21.238;2023-03-15T00:46:59;98624.33;;;10.54;67.64
56582;BME280;42463;52.214;21.238;2023-03-15T00:49:04;98625.86;;;10.54;67.74
56582;BME280;42463;52.214;21.238;2023-03-15T00:51:13;98628.60;;;10.54;67.74
56582;BME280;42463;52.214;21.238;2023-03-15T00:53:18;98629.63;;;10.55;67.66
56582;BME280;42463;52.214;21.238;2023-03-15T00:55:25;98625.48;;;10.50;67.58
56582;BME280;42463;52.214;21.238;2023-03-15T00:57:32;98628.14;;;10.53;67.60
56582;BME280;42463;52.214;21.238;2023-03-15T00:59:38;98640.99;;;10.53;67.70
56582;BME280;42463;52.214;21.238;2023-03-15T01:01:45;98641.41;;;10.51;67.83
56582;BME280;42463;52.214;21.238;2023-03-15T01:03:51;98645.63;;;10.49;67.84
56582;BME280;42463;52.214;21.238;2023-03-15T01:05:57;98664.15;;;10.47;67.98
56582;BME280;42463;52.214;21.238;2023-03-15T01:08:03;98693.56;;;10.45;67.96
56582;BME280;42463;52.214;21.238;2023-03-15T01:10:11;98715.46;;;10.41;65.60
56582;BME280;42463;52.214;21.238;2023-03-15T01:12:19;98730.80;;;10.30;63.45
56582;BME280;42463;52.214;21.238;2023-03-15T01:14:25;98740.87;;;10.17;62.84
56582;BME280;42463;52.214;21.238;2023-03-15T01:16:31;98755.04;;;9.99;61.40
56582;BME280;42463;52.214;21.238;2023-03-15T01:18:37;98760.42;;;9.71;60.72
56582;BME280;42463;52.214;21.238;2023-03-15T01:20:44;98773.38;;;9.47;61.08
56582;BME280;42463;52.214;21.238;2023-03-15T01:22:50;98781.39;;;9.21;60.51
56582;BME280;42463;52.214;21.238;2023-03-15T01:24:55;98787.60;;;8.98;61.46
56582;BME280;42463;52.214;21.238;2023-03-15T01:27:01;98799.51;;;8.84;61.78
56582;BME280;42463;52.214;21.238;2023-03-15T01:29:07;98804.82;;;8.69;61.87
56582;BME280;42463;52.214;21.238;2023-03-15T01:31:18;98818.33;;;8.54;62.35
56582;BME280;42463;52.214;21.238;2023-03-15T01:33:24;98831.55;;;8.34;62.22
56582;BME280;42463;52.214;21.238;2023-03-15T01:35:30;98846.80;;;8.25;62.63
56582;BME280;42463;52.214;21.238;2023-03-15T01:37:36;98853.41;;;8.18;62.37
56582;BME280;42463;52.214;21.238;2023-03-15T01:39:42;98868.66;;;8.04;61.59
56582;BME280;42463;52.214;21.238;2023-03-15T01:41:48;98882.80;;;7.84;61.02
56582;BME280;42463;52.214;21.238;2023-03-15T01:43:54;98889.90;;;7.71;61.20
56582;BME280;42463;52.214;21.238;2023-03-15T01:46:16;98901.05;;;7.61;61.49
56582;BME280;42463;52.214;21.238;2023-03-15T01:48:31;98907.54;;;7.49;61.53
56582;BME280;42463;52.214;21.238;2023-03-15T01:50:38;98925.08;;;7.40;61.82
56582;BME280;42463;52.214;21.238;2023-03-15T01:52:44;98932.88;;;7.29;62.25
56582;BME280;42463;52.214;21.238;2023-03-15T01:54:57;98941.27;;;7.23;62.41
56582;BME280;42463;52.214;21.238;2023-03-15T01:57:08;98949.68;;;7.17;62.27
56582;BME280;42463;52.214;21.238;2023-03-15T01:59:17;98951.92;;;7.08;62.21
56582;BME280;42463;52.214;21.238;2023-03-15T02:03:47;98970.45;;;6.96;61.86
56582;BME280;42463;52.214;21.238;2023-03-15T02:05:58;98986.50;;;6.87;61.80
56582;BME280;42463;52.214;21.238;2023-03-15T02:08:38;99007.77;;;6.80;61.77
56582;BME280;42463;52.214;21.238;2023-03-15T02:10:48;99020.58;;;6.76;61.33
56582;BME280;42463;52.214;21.238;2023-03-15T02:12:55;99033.31;;;6.64;60.99
56582;BME280;42463;52.214;21.238;2023-03-15T02:15:05;99044.11;;;6.57;61.16
56582;BME280;42463;52.214;21.238;2023-03-15T02:17:12;99057.89;;;6.55;61.20
56582;BME280;42463;52.214;21.238;2023-03-15T02:19:27;99068.85;;;6.50;61.36
56582;BME280;42463;52.214;21.238;2023-03-15T02:21:44;99081.77;;;6.47;61.00
56582;BME280;42463;52.214;21.238;2023-03-15T02:24:06;99078.42;;;6.37;60.66
56582;BME280;42463;52.214;21.238;2023-03-15T02:26:19;99085.09;;;6.28;60.70
56582;BME280;42463;52.214;21.238;2023-03-15T02:28:28;99088.41;;;6.25;61.11
56582;BME280;42463;52.214;21.238;2023-03-15T02:30:35;99091.85;;;6.21;61.35
56582;BME280;42463;52.214;21.238;2023-03-15T02:32:40;99101.58;;;6.19;61.30
56582;BME280;42463;52.214;21.238;2023-03-15T02:34:46;99117.34;;;6.16;61.39
56582;BME280;42463;52.214;21.238;2023-03-15T02:36:52;99133.48;;;6.14;61.61
56582;BME280;42463;52.214;21.238;2023-03-15T02:38:58;99145.70;;;6.14;61.91
56582;BME280;42463;52.214;21.238;2023-03-15T02:41:05;99163.41;;;6.14;62.03
56582;BME280;42463;52.214;21.238;2023-03-15T02:43:14;99176.70;;;6.18;62.43
56582;BME280;42463;52.214;21.238;2023-03-15T02:45:22;99193.85;;;6.24;62.66
56582;BME280;42463;52.214;21.238;2023-03-15T02:47:33;99196.58;;;6.27;62.58
56582;BME280;42463;52.214;21.238;2023-03-15T02:49:40;99201.74;;;6.22;62.02
56582;BME280;42463;52.214;21.238;2023-03-15T02:51:47;99202.91;;;6.15;62.32
56582;BME280;42463;52.214;21.238;2023-03-15T02:53:54;99207.21;;;6.10;62.25
56582;BME280;42463;52.214;21.238;2023-03-15T02:56:00;99206.02;;;6.07;62.23
56582;BME280;42463;52.214;21.238;2023-03-15T02:58:07;99209.95;;;6.03;62.29
56582;BME280;42463;52.214;21.238;2023-03-15T03:00:14;99223.52;;;6.02;62.47
56582;BME280;42463;52.214;21.238;2023-03-15T03:02:21;99228.66;;;6.01;62.49
56582;BME280;42463;52.214;21.238;2023-03-15T03:04:27;99232.53;;;6.01;62.21
56582;BME280;42463;52.214;21.238;2023-03-15T03:06:33;99232.48;;;6.00;62.27
56582;BME280;42463;52.214;21.238;2023-03-15T03:08:39;99231.97;;;6.03;62.48
56582;BME280;42463;52.214;21.238;2023-03-15T03:10:45;99228.12;;;6.00;62.36
56582;BME280;42463;52.214;21.238;2023-03-15T03:12:51;99232.38;;;6.01;62.12
56582;BME280;42463;52.214;21.238;2023-03-15T03:14:59;99238.23;;;5.99;61.88
56582;BME280;42463;52.214;21.238;2023-03-15T03:17:06;99243.50;;;5.99;62.10
56582;BME280;42463;52.214;21.238;2023-03-15T03:19:11;99247.45;;;6.01;62.11
56582;BME280;42463;52.214;21.238;2023-03-15T03:21:17;99255.86;;;6.07;61.93
56582;BME280;42463;52.214;21.238;2023-03-15T03:23:23;99256.00;;;6.10;61.74
56582;BME280;42463;52.214;21.238;2023-03-15T03:25:29;99267.96;;;6.06;61.48
56582;BME280;42463;52.214;21.238;2023-03-15T03:27:34;99277.61;;;6.01;61.44
56582;BME280;42463;52.214;21.238;2023-03-15T03:29:41;99280.35;;;5.96;61.38
56582;BME280;42463;52.214;21.238;2023-03-15T03:31:47;99282.73;;;5.94;61.55
56582;BME280;42463;52.214;21.238;2023-03-15T03:33:53;99286.66;;;5.93;61.82
56582;BME280;42463;52.214;21.238;2023-03-15T03:36:02;99291.66;;;5.96;61.91
56582;BME280;42463;52.214;21.238;2023-03-15T03:38:08;99301.02;;;6.00;61.90
56582;BME280;42463;52.214;21.238;2023-03-15T03:40:16;99310.95;;;6.06;61.85
56582;BME280;42463;52.214;21.238;2023-03-15T03:42:22;99319.48;;;6.10;61.74
56582;BME280;42463;52.214;21.238;2023-03-15T03:44:28;99323.88;;;6.12;61.78
56582;BME280;42463;52.214;21.238;2023-03-15T03:46:33;99329.77;;;6.13;61.51
56582;BME280;42463;52.214;21.238;2023-03-15T03:48:39;99335.43;;;6.10;61.47
56582;BME280;42463;52.214;21.238;2023-03-15T03:50:45;99339.13;;;6.08;61.36
56582;BME280;42463;52.214;21.238;2023-03-15T03:52:50;99350.98;;;6.09;61.70
56582;BME280;42463;52.214;21.238;2023-03-15T03:54:59;99359.96;;;6.13;61.53
56582;BME280;42463;52.214;21.238;2023-03-15T03:57:05;99368.77;;;6.11;61.59
56582;BME280;42463;52.214;21.238;2023-03-15T03:59:13;99375.88;;;6.10;61.47
56582;BME280;42463;52.214;21.238;2023-03-15T04:01:33;99378.16;;;6.04;61.36
56582;BME280;42463;52.214;21.238;2023-03-15T04:03:38;99380.34;;;6.01;61.67
56582;BME280;42463;52.214;21.238;2023-03-15T04:05:48;99369.23;;;6.04;61.88
56582;BME280;42463;52.214;21.238;2023-03-15T04:07:58;99369.04;;;6.07;61.83
56582;BME280;42463;52.214;21.238;2023-03-15T04:11:59;99370.17;;;6.08;61.70
56582;BME280;42463;52.214;21.238;2023-03-15T04:14:04;99376.02;;;6.04;61.78
56582;BME280;42463;52.214;21.238;2023-03-15T04:16:11;99379.09;;;6.04;62.01
56582;BME280;42463;52.214;21.238;2023-03-15T04:18:31;99379.92;;;6.03;61.95
56582;BME280;42463;52.214;21.238;2023-03-15T04:20:37;99382.06;;;6.01;61.90
56582;BME280;42463;52.214;21.238;2023-03-15T04:22:43;99385.09;;;6.02;61.88
56582;BME280;42463;52.214;21.238;2023-03-15T04:25:12;99386.41;;;6.04;62.06
56582;BME280;42463;52.214;21.238;2023-03-15T04:27:56;99378.02;;;6.09;62.00
56582;BME280;42463;52.214;21.238;2023-03-15T04:30:24;99373.46;;;6.07;61.63
56582;BME280;42463;52.214;21.238;2023-03-15T04:32:43;99373.80;;;6.04;61.85
56582;BME280;42463;52.214;21.238;2023-03-15T04:35:00;99377.86;;;6.01;61.58
56582;BME280;42463;52.214;21.238;2023-03-15T04:37:16;99390.69;;;5.94;61.38
56582;BME280;42463;52.214;21.238;2023-03-15T04:39:39;99396.69;;;5.89;61.74
56582;BME280;42463;52.214;21.238;2023-03-15T04:42:07;99393.46;;;5.87;61.86
56582;BME280;42463;52.214;21.238;2023-03-15T04:44:29;99387.98;;;5.90;62.04
56582;BME280;42463;52.214;21.238;2023-03-15T04:46:55;99390.50;;;5.92;61.77
56582;BME280;42463;52.214;21.238;2023-03-15T04:49:19;99405.68;;;5.89;61.34
56582;BME280;42463;52.214;21.238;2023-03-15T04:51:54;99417.70;;;5.84;61.54
56582;BME280;42463;52.214;21.238;2023-03-15T04:54:26;99419.17;;;5.86;61.83
56582;BME280;42463;52.214;21.238;2023-03-15T04:56:42;99421.52;;;5.83;61.31
56582;BME280;42463;52.214;21.238;2023-03-15T04:59:08;99426.92;;;5.81;61.59
56582;BME280;42463;52.214;21.238;2023-03-15T05:01:49;99428.80;;;5.81;61.56
56582;BME280;42463;52.214;21.238;2023-03-15T05:04:17;99427.50;;;5.84;61.56
56582;BME280;42463;52.214;21.238;2023-03-15T05:06:25;99424.73;;;5.86;61.63
56582;BME280;42463;52.214;21.238;2023-03-15T05:08:49;99424.27;;;5.90;61.64
56582;BME280;42463;52.214;21.238;2023-03-15T05:11:05;99436.69;;;5.92;61.33
56582;BME280;42463;52.214;21.238;2023-03-15T05:13:27;99443.88;;;5.94;61.47
56582;BME280;42463;52.214;21.238;2023-03-15T05:15:52;99447.46;;;5.96;61.20
56582;BME280;42463;52.214;21.238;2023-03-15T05:18:11;99450.20;;;5.87;60.56
56582;BME280;42463;52.214;21.238;2023-03-15T05:20:37;99452.56;;;5.82;60.93
56582;BME280;42463;52.214;21.238;2023-03-15T05:23:21;99470.23;;;5.79;60.63
56582;BME280;42463;52.214;21.238;2023-03-15T05:25:39;99474.89;;;5.78;60.75
56582;BME280;42463;52.214;21.238;2023-03-15T05:28:06;99479.90;;;5.78;60.44
56582;BME280;42463;52.214;21.238;2023-03-15T05:30:26;99485.92;;;5.77;60.26
56582;BME280;42463;52.214;21.238;2023-03-15T05:32:43;99484.50;;;5.76;60.28
56582;BME280;42463;52.214;21.238;2023-03-15T05:35:08;99491.48;;;5.76;60.24
56582;BME280;42463;52.214;21.238;2023-03-15T05:37:42;99494.10;;;5.85;60.41
56582;BME280;42463;52.214;21.238;2023-03-15T05:40:12;99490.38;;;5.87;60.30
56582;BME280;42463;52.214;21.238;2023-03-15T05:42:36;99498.48;;;5.94;60.00
56582;BME280;42463;52.214;21.238;2023-03-15T05:45:01;99503.23;;;5.98;59.35
56582;BME280;42463;52.214;21.238;2023-03-15T05:47:32;99505.27;;;6.03;59.37
56582;BME280;42463;52.214;21.238;2023-03-15T05:49:45;99503.20;;;6.08;59.31
56582;BME280;42463;52.214;21.238;2023-03-15T05:52:10;99511.48;;;6.07;57.74
56582;BME280;42463;52.214;21.238;2023-03-15T05:54:32;99522.32;;;5.97;57.73
56582;BME280;42463;52.214;21.238;2023-03-15T05:57:01;99530.42;;;5.96;57.87
56582;BME280;42463;52.214;21.238;2023-03-15T05:59:14;99541.71;;;5.98;58.14
56582;BME280;42463;52.214;21.238;2023-03-15T06:01:43;99553.63;;;6.03;57.94
56582;BME280;42463;52.214;21.238;2023-03-15T06:04:02;99552.59;;;6.05;57.77
56582;BME280;42463;52.214;21.238;2023-03-15T06:06:08;99558.52;;;6.10;57.95
56582;BME280;42463;52.214;21.238;2023-03-15T06:08:16;99564.65;;;6.16;58.09
56582;BME280;42463;52.214;21.238;2023-03-15T06:10:23;99572.22;;;6.24;58.11
56582;BME280;42463;52.214;21.238;2023-03-15T06:12:30;99577.71;;;6.26;57.35
56582;BME280;42463;52.214;21.238;2023-03-15T06:14:36;99579.38;;;6.24;57.43
56582;BME280;42463;52.214;21.238;2023-03-15T06:16:44;99579.98;;;6.25;57.41
56582;BME280;42463;52.214;21.238;2023-03-15T06:18:49;99587.30;;;6.26;57.19
56582;BME280;42463;52.214;21.238;2023-03-15T06:20:55;99597.41;;;6.20;56.71
56582;BME280;42463;52.214;21.238;2023-03-15T06:23:00;99597.65;;;6.19;57.43
56582;BME280;42463;52.214;21.238;2023-03-15T06:25:13;99590.93;;;6.19;57.49
56582;BME280;42463;52.214;21.238;2023-03-15T06:27:21;99582.59;;;6.23;57.50
56582;BME280;42463;52.214;21.238;2023-03-15T06:29:28;99591.55;;;6.26;57.55
56582;BME280;42463;52.214;21.238;2023-03-15T06:31:34;99597.29;;;6.27;57.14
56582;BME280;42463;52.214;21.238;2023-03-15T06:33:46;99602.61;;;6.27;56.84
56582;BME280;42463;52.214;21.238;2023-03-15T06:35:51;99603.55;;;6.28;56.51
56582;BME280;42463;52.214;21.238;2023-03-15T06:37:57;99610.70;;;6.28;56.92
56582;BME280;42463;52.214;21.238;2023-03-15T06:40:03;99620.58;;;6.29;56.31
56582;BME280;42463;52.214;21.238;2023-03-15T06:42:10;99621.98;;;6.26;56.35
56582;BME280;42463;52.214;21.238;2023-03-15T06:44:17;99622.77;;;6.25;56.70
56582;BME280;42463;52.214;21.238;2023-03-15T06:46:23;99633.61;;;6.28;56.17
56582;BME280;42463;52.214;21.238;2023-03-15T06:48:29;99634.98;;;6.27;56.14
56582;BME280;42463;52.214;21.238;2023-03-15T06:50:35;99632.81;;;6.26;55.81
56582;BME280;42463;52.214;21.238;2023-03-15T06:52:40;99638.30;;;6.24;55.45
56582;BME280;42463;52.214;21.238;2023-03-15T06:54:46;99643.94;;;6.19;55.53
56582;BME280;42463;52.214;21.238;2023-03-15T06:56:52;99651.24;;;6.18;55.34
56582;BME280;42463;52.214;21.238;2023-03-15T06:58:57;99660.18;;;6.15;55.18
56582;BME280;42463;52.214;21.238;2023-03-15T07:01:03;99662.63;;;6.13;55.50
56582;BME280;42463;52.214;21.238;2023-03-15T07:03:09;99670.52;;;6.18;55.94
56582;BME280;42463;52.214;21.238;2023-03-15T07:05:15;99671.54;;;6.24;55.81
56582;BME280;42463;52.214;21.238;2023-03-15T07:07:20;99672.70;;;6.27;55.46
56582;BME280;42463;52.214;21.238;2023-03-15T07:09:26;99674.23;;;6.31;55.34
56582;BME280;42463;52.214;21.238;2023-03-15T07:11:32;99668.77;;;6.31;54.79
56582;BME280;42463;52.214;21.238;2023-03-15T07:13:38;99672.27;;;6.25;54.90
56582;BME280;42463;52.214;21.238;2023-03-15T07:15:44;99671.77;;;6.19;54.80
56582;BME280;42463;52.214;21.238;2023-03-15T07:17:50;99676.91;;;6.17;54.93
56582;BME280;42463;52.214;21.238;2023-03-15T07:19:56;99678.75;;;6.18;54.67
56582;BME280;42463;52.214;21.238;2023-03-15T07:22:01;99675.80;;;6.15;54.42
56582;BME280;42463;52.214;21.238;2023-03-15T07:24:07;99680.50;;;6.13;55.01
56582;BME280;42463;52.214;21.238;2023-03-15T07:26:13;99680.23;;;6.13;55.11
56582;BME280;42463;52.214;21.238;2023-03-15T07:28:18;99681.47;;;6.15;55.11
56582;BME280;42463;52.214;21.238;2023-03-15T07:30:24;99685.60;;;6.18;54.88
56582;BME280;42463;52.214;21.238;2023-03-15T07:32:29;99686.48;;;6.16;54.97
56582;BME280;42463;52.214;21.238;2023-03-15T07:34:35;99686.57;;;6.18;55.15
56582;BME280;42463;52.214;21.238;2023-03-15T07:36:41;99690.80;;;6.20;55.21
56582;BME280;42463;52.214;21.238;2023-03-15T07:38:47;99689.95;;;6.21;54.73
56582;BME280;42463;52.214;21.238;2023-03-15T07:40:53;99694.02;;;6.20;54.94
56582;BME280;42463;52.214;21.238;2023-03-15T07:42:58;99692.14;;;6.16;55.01
56582;BME280;42463;52.214;21.238;2023-03-15T07:45:05;99696.65;;;6.21;54.74
56582;BME280;42463;52.214;21.238;2023-03-15T07:47:11;99704.66;;;6.18;54.45
56582;BME280;42463;52.214;21.238;2023-03-15T07:49:17;99703.38;;;6.15;54.59
56582;BME280;42463;52.214;21.238;2023-03-15T07:51:22;99709.67;;;6.21;55.15
56582;BME280;42463;52.214;21.238;2023-03-15T07:53:28;99711.83;;;6.34;55.05
56582;BME280;42463;52.214;21.238;2023-03-15T07:55:33;99714.42;;;6.45;54.39
56582;BME280;42463;52.214;21.238;2023-03-15T07:57:39;99719.95;;;6.57;54.18
56582;BME280;42463;52.214;21.238;2023-03-15T07:59:45;99727.84;;;6.65;53.52
56582;BME280;42463;52.214;21.238;2023-03-15T08:01:50;99731.69;;;6.69;53.59
56582;BME280;42463;52.214;21.238;2023-03-15T08:03:56;99738.39;;;6.74;53.15
56582;BME280;42463;52.214;21.238;2023-03-15T08:06:01;99744.69;;;6.74;52.83
56582;BME280;42463;52.214;21.238;2023-03-15T08:08:07;99747.84;;;6.76;53.09
56582;BME280;42463;52.214;21.238;2023-03-15T08:10:13;99741.78;;;6.77;53.26
56582;BME280;42463;52.214;21.238;2023-03-15T08:12:19;99744.86;;;6.85;53.64
56582;BME280;42463;52.214;21.238;2023-03-15T08:14:24;99746.27;;;6.92;53.52
56582;BME280;42463;52.214;21.238;2023-03-15T08:16:30;99749.16;;;6.98;53.38
56582;BME280;42463;52.214;21.238;2023-03-15T08:18:35;99759.55;;;7.07;53.46
56582;BME280;42463;52.214;21.238;2023-03-15T08:20:41;99761.30;;;7.17;53.39
56582;BME280;42463;52.214;21.238;2023-03-15T08:22:47;99767.16;;;7.23;53.48
56582;BME280;42463;52.214;21.238;2023-03-15T08:24:53;99768.11;;;7.28;53.27
56582;BME280;42463;52.214;21.238;2023-03-15T08:27:00;99776.45;;;7.30;53.54
56582;BME280;42463;52.214;21.238;2023-03-15T08:29:06;99785.13;;;7.36;53.76
56582;BME280;42463;52.214;21.238;2023-03-15T08:31:11;99797.42;;;7.39;52.95
56582;BME280;42463;52.214;21.238;2023-03-15T08:33:17;99797.33;;;7.40;53.68
56582;BME280;42463;52.214;21.238;2023-03-15T08:35:23;99793.98;;;7.44;53.54
56582;BME280;42463;52.214;21.238;2023-03-15T08:37:29;99797.17;;;7.53;53.88
56582;BME280;42463;52.214;21.238;2023-03-15T08:39:34;99801.08;;;7.66;53.50
56582;BME280;42463;52.214;21.238;2023-03-15T08:41:40;99806.01;;;7.76;52.50
56582;BME280;42463;52.214;21.238;2023-03-15T08:43:47;99808.23;;;7.72;51.92
56582;BME280;42463;52.214;21.238;2023-03-15T08:45:52;99818.52;;;7.67;51.99
56582;BME280;42463;52.214;21.238;2023-03-15T08:47:58;99831.82;;;7.67;51.98
56582;BME280;42463;52.214;21.238;2023-03-15T08:50:06;99837.69;;;7.70;52.17
56582;BME280;42463;52.214;21.238;2023-03-15T08:52:12;99840.77;;;7.71;51.88
56582;BME280;42463;52.214;21.238;2023-03-15T08:54:17;99849.55;;;7.69;51.38
56582;BME280;42463;52.214;21.238;2023-03-15T08:56:23;99851.19;;;7.62;51.53
56582;BME280;42463;52.214;21.238;2023-03-15T08:58:28;99859.56;;;7.63;51.48
56582;BME280;42463;52.214;21.238;2023-03-15T09:00:34;99859.20;;;7.59;50.83
56582;BME280;42463;52.214;21.238;2023-03-15T09:02:40;99865.85;;;7.62;51.58
56582;BME280;42463;52.214;21.238;2023-03-15T09:04:46;99863.09;;;7.60;50.92
56582;BME280;42463;52.214;21.238;2023-03-15T09:06:52;99860.32;;;7.51;51.46
56582;BME280;42463;52.214;21.238;2023-03-15T09:08:58;99858.92;;;7.56;51.74
56582;BME280;42463;52.214;21.238;2023-03-15T09:11:03;99854.30;;;7.65;51.99
56582;BME280;42463;52.214;21.238;2023-03-15T09:13:09;99855.06;;;7.77;51.86
56582;BME280;42463;52.214;21.238;2023-03-15T09:15:15;99861.38;;;7.89;51.46
56582;BME280;42463;52.214;21.238;2023-03-15T09:17:21;99857.70;;;7.89;49.75
56582;BME280;42463;52.214;21.238;2023-03-15T09:19:27;99859.60;;;7.89;50.77
56582;BME280;42463;52.214;21.238;2023-03-15T09:21:35;99863.83;;;7.99;51.05
56582;BME280;42463;52.214;21.238;2023-03-15T09:23:42;99865.59;;;8.11;50.97
56582;BME280;42463;52.214;21.238;2023-03-15T09:25:47;99866.42;;;8.21;50.61
56582;BME280;42463;52.214;21.238;2023-03-15T09:27:53;99863.38;;;8.24;49.38
56582;BME280;42463;52.214;21.238;2023-03-15T09:29:58;99862.50;;;8.24;49.98
56582;BME280;42463;52.214;21.238;2023-03-15T09:32:05;99866.27;;;8.33;50.72
56582;BME280;42463;52.214;21.238;2023-03-15T09:34:10;99867.63;;;8.41;49.61
56582;BME280;42463;52.214;21.238;2023-03-15T09:36:16;99870.70;;;8.46;49.07
56582;BME280;42463;52.214;21.238;2023-03-15T09:38:22;99872.18;;;8.47;49.19
56582;BME280;42463;52.214;21.238;2023-03-15T09:40:29;99880.75;;;8.50;49.31
56582;BME280;42463;52.214;21.238;2023-03-15T09:42:46;99874.11;;;8.51;47.55
56582;BME280;42463;52.214;21.238;2023-03-15T09:45:06;99876.29;;;8.46;47.74
56582;BME280;42463;52.214;21.238;2023-03-15T09:47:31;99875.48;;;8.48;47.88
56582;BME280;42463;52.214;21.238;2023-03-15T09:49:46;99871.48;;;8.57;47.61
56582;BME280;42463;52.214;21.238;2023-03-15T09:51:57;99871.77;;;8.50;46.55
56582;BME280;42463;52.214;21.238;2023-03-15T09:54:09;99872.38;;;8.45;47.39
56582;BME280;42463;52.214;21.238;2023-03-15T09:56:21;99866.84;;;8.44;46.48
56582;BME280;42463;52.214;21.238;2023-03-15T09:58:29;99872.23;;;8.42;47.00
56582;BME280;42463;52.214;21.238;2023-03-15T10:00:40;99870.27;;;8.50;47.70
56582;BME280;42463;52.214;21.238;2023-03-15T10:02:55;99877.52;;;8.66;47.95
56582;BME280;42463;52.214;21.238;2023-03-15T10:05:07;99877.66;;;8.81;46.70
56582;BME280;42463;52.214;21.238;2023-03-15T10:07:15;99876.73;;;8.97;46.53
56582;BME280;42463;52.214;21.238;2023-03-15T10:09:23;99876.45;;;9.14;45.98
56582;BME280;42463;52.214;21.238;2023-03-15T10:11:35;99877.45;;;9.31;45.67
56582;BME280;42463;52.214;21.238;2023-03-15T10:13:47;99875.95;;;9.38;44.90
56582;BME280;42463;52.214;21.238;2023-03-15T10:16:04;99868.67;;;9.41;45.29
56582;BME280;42463;52.214;21.238;2023-03-15T10:18:37;99865.09;;;9.40;44.18
56582;BME280;42463;52.214;21.238;2023-03-15T10:20:46;99860.61;;;9.31;43.53
56582;BME280;42463;52.214;21.238;2023-03-15T10:22:57;99863.61;;;9.27;44.44
56582;BME280;42463;52.214;21.238;2023-03-15T10:25:09;99863.54;;;9.43;44.00
56582;BME280;42463;52.214;21.238;2023-03-15T10:27:21;99865.99;;;9.53;43.61
56582;BME280;42463;52.214;21.238;2023-03-15T10:29:29;99872.37;;;9.69;43.55
56582;BME280;42463;52.214;21.238;2023-03-15T10:31:38;99877.18;;;9.86;43.65
56582;BME280;42463;52.214;21.238;2023-03-15T10:33:46;99874.45;;;9.92;42.62
56582;BME280;42463;52.214;21.238;2023-03-15T10:35:53;99873.83;;;9.97;42.64
56582;BME280;42463;52.214;21.238;2023-03-15T10:37:58;99877.42;;;10.01;42.51
56582;BME280;42463;52.214;21.238;2023-03-15T10:40:07;99876.43;;;9.98;42.29
56582;BME280;42463;52.214;21.238;2023-03-15T10:42:28;99875.55;;;9.94;42.07
56582;BME280;42463;52.214;21.238;2023-03-15T10:44:37;99875.61;;;9.97;42.25
56582;BME280;42463;52.214;21.238;2023-03-15T10:46:42;99870.96;;;9.99;42.06
56582;BME280;42463;52.214;21.238;2023-03-15T10:49:10;99873.66;;;9.96;41.54
56582;BME280;42463;52.214;21.238;2023-03-15T10:51:19;99869.35;;;9.79;41.25
56582;BME280;42463;52.214;21.238;2023-03-15T10:53:25;99873.00;;;9.74;42.05
56582;BME280;42463;52.214;21.238;2023-03-15T10:55:34;99875.25;;;9.70;41.50
56582;BME280;42463;52.214;21.238;2023-03-15T10:57:50;99870.98;;;9.65;41.74
56582;BME280;42463;52.214;21.238;2023-03-15T10:59:59;99875.39;;;9.58;41.77
56582;BME280;42463;52.214;21.238;2023-03-15T11:02:22;99876.38;;;9.58;42.01
56582;BME280;42463;52.214;21.238;2023-03-15T11:04:28;99877.09;;;9.69;42.84
56582;BME280;42463;52.214;21.238;2023-03-15T11:06:40;99871.05;;;9.86;42.90
56582;BME280;42463;52.214;21.238;2023-03-15T11:08:46;99868.80;;;10.00;41.61
56582;BME280;42463;52.214;21.238;2023-03-15T11:10:57;99868.84;;;10.07;41.71
56582;BME280;42463;52.214;21.238;2023-03-15T11:13:12;99874.24;;;10.25;41.87
56582;BME280;42463;52.214;21.238;2023-03-15T11:15:19;99880.34;;;10.54;41.10
56582;BME280;42463;52.214;21.238;2023-03-15T11:17:27;99879.04;;;10.76;40.66
56582;BME280;42463;52.214;21.238;2023-03-15T11:19:36;99883.63;;;10.99;40.37
56582;BME280;42463;52.214;21.238;2023-03-15T11:21:45;99886.67;;;11.16;40.04
56582;BME280;42463;52.214;21.238;2023-03-15T11:23:54;99881.73;;;11.26;39.63
56582;BME280;42463;52.214;21.238;2023-03-15T11:26:01;99877.71;;;11.33;39.80
56582;BME280;42463;52.214;21.238;2023-03-15T11:28:14;99880.75;;;11.35;39.72
56582;BME280;42463;52.214;21.238;2023-03-15T11:30:26;99884.99;;;11.38;39.79